createdAt,value
2022-08-28T00:00:24.877Z,98958.28
2022-08-28T00:02:51.431Z,98965.38
2022-08-28T00:05:19.300Z,98973.44
2022-08-28T00:07:47.921Z,98967.22
2022-08-28T00:10:15.548Z,98970.81
2022-08-28T00:12:41.996Z,98963.63
2022-08-28T00:15:12.954Z,98968.09
2022-08-28T00:17:40.690Z,98968.38
2022-08-28T00:20:07.945Z,98966.75
2022-08-28T00:22:34.557Z,98971.22
2022-08-28T00:25:01.091Z,98971.38
2022-08-28T00:27:46.279Z,98973.91
2022-08-28T00:30:12.772Z,98979.16
2022-08-28T00:32:39.242Z,98978.47
2022-08-28T00:35:06.676Z,98976.78
2022-08-28T00:37:33.685Z,98976.00
2022-08-28T00:40:00.174Z,98978.56
2022-08-28T00:42:27.510Z,98981.91
2022-08-28T00:44:53.942Z,98980.22
2022-08-28T00:47:20.377Z,98976.63
2022-08-28T00:49:51.354Z,98987.53
2022-08-28T00:52:18.986Z,98982.91
2022-08-28T00:54:59.313Z,98983.06
2022-08-28T00:57:31.179Z,98977.81
2022-08-28T00:59:58.536Z,98985.66
2022-08-28T01:02:25.437Z,98983.09
2022-08-28T01:04:52.006Z,98983.84
2022-08-28T01:07:18.933Z,98982.16
2022-08-28T01:09:47.511Z,98973.28
2022-08-28T01:12:24.379Z,98975.03
2022-08-28T01:14:58.556Z,98975.78
2022-08-28T01:17:25.845Z,98974.13
2022-08-28T01:19:57.175Z,98974.97
2022-08-28T01:22:23.584Z,98975.19
2022-08-28T01:24:52.520Z,98975.41
2022-08-28T01:27:19.175Z,98981.63
2022-08-28T01:29:45.730Z,98977.06
2022-08-28T01:32:14.835Z,98981.44
2022-08-28T01:34:41.402Z,98976.16
2022-08-28T01:37:07.793Z,98982.44
2022-08-28T01:39:35.838Z,98984.28
2022-08-28T01:42:03.781Z,98986.03
2022-08-28T01:44:30.190Z,98984.28
2022-08-28T01:46:57.898Z,98986.19
2022-08-28T01:49:24.888Z,98983.72
2022-08-28T01:51:52.407Z,98979.28
2022-08-28T01:54:21.454Z,98988.41
2022-08-28T01:56:47.882Z,98984.84
2022-08-28T01:59:14.550Z,98988.19
2022-08-28T02:01:43.016Z,98987.44
2022-08-28T02:04:10.343Z,98998.03
2022-08-28T02:06:37.950Z,98993.66
2022-08-28T02:09:05.735Z,98997.41
2022-08-28T02:11:33.025Z,98995.66
2022-08-28T02:14:00.313Z,98995.84
2022-08-28T02:16:27.394Z,98991.41
2022-08-28T02:18:53.797Z,98991.41
2022-08-28T02:21:20.387Z,99000.22
2022-08-28T02:23:49.672Z,98995.84
2022-08-28T02:26:16.303Z,98995.88
2022-08-28T02:28:43.397Z,99004.88
2022-08-28T02:31:10.136Z,98994.19
2022-08-28T02:33:43.669Z,98991.56
2022-08-28T02:36:13.138Z,98998.63
2022-08-28T02:38:39.691Z,99007.56
2022-08-28T02:41:06.894Z,99000.38
2022-08-28T02:43:33.388Z,99000.34
2022-08-28T02:45:59.970Z,98991.56
2022-08-28T02:48:34.260Z,98993.44
2022-08-28T02:51:02.748Z,98991.66
2022-08-28T02:53:30.047Z,98988.09
2022-08-28T02:55:57.146Z,98990.88
2022-08-28T02:58:26.010Z,98994.56
2022-08-28T03:00:56.137Z,98990.13
2022-08-28T03:03:22.607Z,98989.06
2022-08-28T03:05:52.871Z,99004.88
2022-08-28T03:08:23.437Z,98993.47
2022-08-28T03:10:53.879Z,98998.88
2022-08-28T03:13:26.764Z,98996.28
2022-08-28T03:15:57.792Z,98996.44
2022-08-28T03:18:28.752Z,98990.81
2022-08-28T03:20:55.896Z,98990.13
2022-08-28T03:23:29.062Z,98998.97
2022-08-28T03:26:04.915Z,99003.47
2022-08-28T03:28:33.893Z,98998.06
2022-08-28T03:31:00.663Z,99003.53
2022-08-28T03:33:30.584Z,99003.59
2022-08-28T03:35:57.831Z,99006.22
2022-08-28T03:38:27.402Z,99006.16
2022-08-28T03:40:53.933Z,99000.88
2022-08-28T03:43:22.244Z,99001.00
2022-08-28T03:46:02.603Z,98998.34
2022-08-28T03:48:34.459Z,98995.63
2022-08-28T03:51:00.918Z,99000.09
2022-08-28T03:53:29.120Z,99001.91
2022-08-28T03:55:56.227Z,99001.06
2022-08-28T03:58:23.343Z,99003.59
2022-08-28T04:00:53.233Z,98999.28
2022-08-28T04:03:20.728Z,99001.13
2022-08-28T04:05:47.813Z,99007.34
2022-08-28T04:08:18.820Z,98999.28
2022-08-28T04:10:45.890Z,99012.59
2022-08-28T04:13:13.110Z,99014.47
2022-08-28T04:15:39.730Z,99003.94
2022-08-28T04:18:09.894Z,99008.44
2022-08-28T04:20:39.541Z,99010.13
2022-08-28T04:23:08.372Z,99011.88
2022-08-28T04:25:34.771Z,99007.25
2022-08-28T04:28:01.199Z,99008.94
2022-08-28T04:30:33.939Z,99011.69
2022-08-28T04:33:00.374Z,99022.44
2022-08-28T04:35:27.058Z,99017.09
2022-08-28T04:37:55.592Z,99011.84
2022-08-28T04:40:25.133Z,99019.69
2022-08-28T04:42:51.757Z,99017.88
2022-08-28T04:45:22.079Z,99018.69
2022-08-28T04:47:48.971Z,99013.41
2022-08-28T04:50:15.369Z,99023.38
2022-08-28T04:52:43.483Z,99024.16
2022-08-28T04:55:10.491Z,99021.38
2022-08-28T04:57:39.979Z,99021.34
2022-08-28T05:00:07.111Z,99016.91
2022-08-28T05:02:33.644Z,99023.31
2022-08-28T05:05:00.117Z,99024.97
2022-08-28T05:07:26.553Z,99024.03
2022-08-28T05:09:54.084Z,99026.72
2022-08-28T05:12:20.513Z,99025.09
2022-08-28T05:14:49.851Z,99032.25
2022-08-28T05:17:16.276Z,99033.03
2022-08-28T05:19:43.782Z,99035.78
2022-08-28T05:22:13.770Z,99039.34
2022-08-28T05:24:40.523Z,99044.75
2022-08-28T05:27:07.389Z,99042.84
2022-08-28T05:29:33.819Z,99042.84
2022-08-28T05:32:00.334Z,99042.81
2022-08-28T05:34:26.872Z,99046.50
2022-08-28T05:36:53.253Z,99048.25
2022-08-28T05:39:20.795Z,99043.72
2022-08-28T05:41:47.267Z,99041.84
2022-08-28T05:44:17.292Z,99051.66
2022-08-28T05:46:47.418Z,99050.78
2022-08-28T05:49:14.646Z,99060.66
2022-08-28T05:51:43.758Z,99065.13
2022-08-28T05:54:11.108Z,99055.31
2022-08-28T05:56:38.719Z,99057.09
2022-08-28T05:59:05.935Z,99059.72
2022-08-28T06:01:33.700Z,99055.06
2022-08-28T06:04:17.981Z,99057.66
2022-08-28T06:06:44.794Z,99071.72
2022-08-28T06:09:16.866Z,99061.88
2022-08-28T06:11:44.812Z,99063.56
2022-08-28T06:14:13.624Z,99063.75
2022-08-28T06:16:43.024Z,99067.22
2022-08-28T06:19:10.407Z,99065.59
2022-08-28T06:21:37.579Z,99061.13
2022-08-28T06:24:07.409Z,99074.44
2022-08-28T06:26:33.856Z,99078.91
2022-08-28T06:29:05.309Z,99070.00
2022-08-28T06:31:33.413Z,99075.22
2022-08-28T06:34:01.455Z,99077.91
2022-08-28T06:36:29.371Z,99082.19
2022-08-28T06:39:01.041Z,99090.00
2022-08-28T06:41:28.105Z,99090.00
2022-08-28T06:43:55.079Z,99088.03
2022-08-28T06:46:22.016Z,99090.59
2022-08-28T06:48:48.482Z,99096.00
2022-08-28T06:51:14.993Z,99089.50
2022-08-28T06:53:42.311Z,99095.72
2022-08-28T06:56:08.907Z,99096.41
2022-08-28T06:58:36.981Z,99093.72
2022-08-28T07:01:12.207Z,99098.41
2022-08-28T07:03:44.241Z,99091.22
2022-08-28T07:06:11.766Z,99098.38
2022-08-28T07:08:41.704Z,99108.25
2022-08-28T07:11:13.979Z,99097.44
2022-08-28T07:13:41.354Z,99102.69
2022-08-28T07:16:08.131Z,99097.28
2022-08-28T07:18:34.779Z,99100.78
2022-08-28T07:21:01.230Z,99102.50
2022-08-28T07:23:28.539Z,99097.94
2022-08-28T07:25:55.058Z,99091.59
2022-08-28T07:28:21.884Z,99105.13
2022-08-28T07:30:59.095Z,99099.75
2022-08-28T07:33:26.704Z,99104.13
2022-08-28T07:35:53.567Z,99112.16
2022-08-28T07:38:20.685Z,99106.72
2022-08-28T07:40:47.349Z,99108.31
2022-08-28T07:43:32.444Z,99100.53
2022-08-28T07:46:06.560Z,99106.50
2022-08-28T07:48:35.103Z,99107.38
2022-08-28T07:51:02.188Z,99103.88
2022-08-28T07:53:30.396Z,99107.34
2022-08-28T07:56:01.344Z,99112.69
2022-08-28T07:58:30.587Z,99114.66
2022-08-28T08:00:57.613Z,99119.66
2022-08-28T08:03:26.034Z,99115.38
2022-08-28T08:05:53.984Z,99122.59
2022-08-28T08:08:21.368Z,99118.78
2022-08-28T08:11:01.913Z,99116.69
2022-08-28T08:13:29.594Z,99111.22
2022-08-28T08:16:09.712Z,99116.69
2022-08-28T08:18:36.208Z,99118.22
2022-08-28T08:21:04.630Z,99125.63
2022-08-28T08:23:31.039Z,99118.75
2022-08-28T08:26:00.143Z,99120.41
2022-08-28T08:28:27.433Z,99118.44
2022-08-28T08:31:07.748Z,99125.56
2022-08-28T08:33:34.855Z,99121.78
2022-08-28T08:36:01.262Z,99116.09
2022-08-28T08:38:31.394Z,99121.38
2022-08-28T08:40:59.454Z,99124.31
2022-08-28T08:43:27.681Z,99127.13
2022-08-28T08:45:54.316Z,99129.50
2022-08-28T08:48:32.154Z,99125.97
2022-08-28T08:51:03.192Z,99130.31
2022-08-28T08:53:47.952Z,99125.56
2022-08-28T08:56:16.864Z,99129.06
2022-08-28T08:58:51.214Z,99128.25
2022-08-28T09:01:22.143Z,99127.97
2022-08-28T09:04:22.294Z,99129.97
2022-08-28T09:06:51.731Z,99125.69
2022-08-28T09:09:21.180Z,99127.00
2022-08-28T09:11:56.990Z,99128.84
2022-08-28T09:14:30.373Z,99119.66
2022-08-28T09:16:57.745Z,99127.84
2022-08-28T09:19:24.215Z,99129.19
2022-08-28T09:21:51.066Z,99123.97
2022-08-28T09:24:28.470Z,99128.66
2022-08-28T09:26:56.679Z,99132.69
2022-08-28T09:29:31.726Z,99133.28
2022-08-28T09:31:58.588Z,99135.81
2022-08-28T09:34:24.993Z,99138.97
2022-08-28T09:36:56.089Z,99143.91
2022-08-28T09:39:22.511Z,99134.97
2022-08-28T09:42:10.023Z,99137.75
2022-08-28T09:44:53.991Z,99137.84
2022-08-28T09:47:47.226Z,99127.69
2022-08-28T09:50:19.721Z,99137.44
2022-08-28T09:52:46.195Z,99133.91
2022-08-28T09:55:16.002Z,99130.09
2022-08-28T09:57:45.215Z,99133.63
2022-08-28T10:00:11.842Z,99131.59
2022-08-28T10:02:44.663Z,99125.84
2022-08-28T10:05:16.212Z,99128.84
2022-08-28T10:07:49.851Z,99128.03
2022-08-28T10:10:25.224Z,99139.31
2022-08-28T10:13:12.095Z,99137.44
2022-08-28T10:15:43.323Z,99138.66
2022-08-28T10:18:36.109Z,99131.81
2022-08-28T10:21:21.989Z,99135.13
2022-08-28T10:24:07.316Z,99134.16
2022-08-28T10:26:47.227Z,99144.31
2022-08-28T10:29:29.097Z,99139.44
2022-08-28T10:32:20.462Z,99137.94
2022-08-28T10:35:01.543Z,99138.41
2022-08-28T10:37:46.619Z,99139.13
2022-08-28T10:40:12.991Z,99136.75
2022-08-28T10:42:43.521Z,99138.13
2022-08-28T10:45:17.339Z,99131.47
2022-08-28T10:47:47.753Z,99131.19
2022-08-28T10:50:37.176Z,99137.94
2022-08-28T10:53:07.210Z,99135.44
2022-08-28T10:55:37.797Z,99137.03
2022-08-28T10:58:23.794Z,99127.91
2022-08-28T11:00:56.973Z,99130.44
2022-08-28T11:03:34.397Z,99129.16
2022-08-28T11:06:05.772Z,99130.94
2022-08-28T11:08:35.250Z,99137.88
2022-08-28T11:11:03.125Z,99142.97
2022-08-28T11:13:48.160Z,99133.00
2022-08-28T11:16:20.592Z,99130.78
2022-08-28T11:19:07.284Z,99134.72
2022-08-28T11:21:36.504Z,99135.59
2022-08-28T11:24:11.217Z,99128.69
2022-08-28T11:27:00.566Z,99123.47
2022-08-28T11:29:45.520Z,99130.69
2022-08-28T11:32:47.109Z,99123.13
2022-08-28T11:35:32.286Z,99137.16
2022-08-28T11:38:01.714Z,99134.25
2022-08-28T11:40:28.245Z,99129.38
2022-08-28T11:43:16.417Z,99131.41
2022-08-28T11:45:46.701Z,99125.75
2022-08-28T11:48:22.692Z,99135.13
2022-08-28T11:50:55.240Z,99125.88
2022-08-28T11:53:31.587Z,99128.00
2022-08-28T11:56:29.116Z,99118.19
2022-08-28T11:59:20.646Z,99125.59
2022-08-28T12:01:48.808Z,99114.09
2022-08-28T12:04:17.529Z,99120.72
2022-08-28T12:06:50.239Z,99117.13
2022-08-28T12:09:35.117Z,99125.59
2022-08-28T12:12:04.305Z,99126.97
2022-08-28T12:14:31.349Z,99116.19
2022-08-28T12:17:07.757Z,99119.59
2022-08-28T12:19:41.170Z,99123.81
2022-08-28T12:22:26.723Z,99123.09
2022-08-28T12:25:05.667Z,99112.66
2022-08-28T12:27:36.516Z,99114.97
2022-08-28T12:30:06.857Z,99114.97
2022-08-28T12:32:42.216Z,99118.50
2022-08-28T12:35:08.696Z,99114.94
2022-08-28T12:37:42.932Z,99109.72
2022-08-28T12:40:27.450Z,99108.84
2022-08-28T12:43:02.848Z,99109.66
2022-08-28T12:45:33.002Z,99101.63
2022-08-28T12:48:00.734Z,99106.25
2022-08-28T12:50:30.095Z,99107.44
2022-08-28T12:52:58.514Z,99112.88
2022-08-28T12:55:25.075Z,99113.81
2022-08-28T12:57:51.738Z,99109.63
2022-08-28T13:00:23.300Z,99119.63
2022-08-28T13:02:53.133Z,99123.47
2022-08-28T13:05:27.184Z,99102.09
2022-08-28T13:07:59.292Z,99103.47
2022-08-28T13:10:29.626Z,99104.47
2022-08-28T13:13:07.273Z,99096.91
2022-08-28T13:15:51.858Z,99107.97
2022-08-28T13:18:36.979Z,99099.28
2022-08-28T13:21:12.724Z,99090.56
2022-08-28T13:23:39.371Z,99088.66
2022-08-28T13:26:06.692Z,99088.59
2022-08-28T13:28:37.517Z,99095.25
2022-08-28T13:31:04.699Z,99093.44
2022-08-28T13:33:31.395Z,99103.75
2022-08-28T13:36:01.228Z,99096.66
2022-08-28T13:38:27.709Z,99105.59
2022-08-28T13:40:59.632Z,99094.44
2022-08-28T13:43:28.471Z,99089.63
2022-08-28T13:45:55.194Z,99091.19
2022-08-28T13:48:23.162Z,99087.94
2022-08-28T13:50:51.442Z,99096.09
2022-08-28T13:53:18.598Z,99091.69
2022-08-28T13:55:48.513Z,99088.81
2022-08-28T13:58:16.035Z,99087.53
2022-08-28T14:00:46.983Z,99100.09
2022-08-28T14:03:32.107Z,99094.22
2022-08-28T14:05:58.509Z,99091.84
2022-08-28T14:08:25.303Z,99097.22
2022-08-28T14:10:54.303Z,99088.94
2022-08-28T14:13:23.058Z,99079.00
2022-08-28T14:15:49.780Z,99091.63
2022-08-28T14:18:18.048Z,99083.25
2022-08-28T14:20:44.487Z,99082.44
2022-08-28T14:23:12.447Z,99075.94
2022-08-28T14:25:42.490Z,99087.59
2022-08-28T14:28:12.560Z,99082.81
2022-08-28T14:30:46.590Z,99078.16
2022-08-28T14:33:15.350Z,99075.97
2022-08-28T14:35:41.944Z,99078.69
2022-08-28T14:38:09.597Z,99075.31
2022-08-28T14:40:38.375Z,99084.34
2022-08-28T14:43:05.465Z,99075.63
2022-08-28T14:45:32.060Z,99072.94
2022-08-28T14:47:58.508Z,99077.44
2022-08-28T14:50:24.956Z,99079.81
2022-08-28T14:52:57.113Z,99077.34
2022-08-28T14:55:23.588Z,99079.41
2022-08-28T14:57:51.244Z,99085.03
2022-08-28T15:00:17.901Z,99083.94
2022-08-28T15:02:44.966Z,99078.84
2022-08-28T15:05:11.899Z,99076.41
2022-08-28T15:07:38.414Z,99072.06
2022-08-28T15:10:05.008Z,99083.41
2022-08-28T15:12:31.625Z,99075.91
2022-08-28T15:14:58.101Z,99082.97
2022-08-28T15:17:33.891Z,99077.44
2022-08-28T15:20:01.048Z,99088.06
2022-08-28T15:22:27.656Z,99076.78
2022-08-28T15:24:55.574Z,99068.94
2022-08-28T15:27:25.591Z,99077.66
2022-08-28T15:29:52.236Z,99071.97
2022-08-28T15:32:18.667Z,99071.03
2022-08-28T15:34:45.077Z,99072.88
2022-08-28T15:37:13.353Z,99078.72
2022-08-28T15:39:58.629Z,99077.81
2022-08-28T15:42:25.098Z,99077.22
2022-08-28T15:44:51.562Z,99075.53
2022-08-28T15:47:18.963Z,99072.78
2022-08-28T15:49:49.709Z,99079.56
2022-08-28T15:52:16.863Z,99076.00
2022-08-28T15:54:43.270Z,99064.50
2022-08-28T15:57:12.695Z,99076.41
2022-08-28T15:59:49.516Z,99078.41
2022-08-28T16:02:17.798Z,99070.38
2022-08-28T16:04:44.264Z,99076.94
2022-08-28T16:07:13.542Z,99086.28
2022-08-28T16:09:39.977Z,99082.06
2022-08-28T16:12:06.543Z,99086.09
2022-08-28T16:14:33.119Z,99085.88
2022-08-28T16:17:10.702Z,99084.75
2022-08-28T16:19:38.548Z,99088.91
2022-08-28T16:22:04.992Z,99094.28
2022-08-28T16:24:31.448Z,99093.00
2022-08-28T16:26:57.818Z,99090.25
2022-08-28T16:29:24.296Z,99089.97
2022-08-28T16:31:50.732Z,99092.00
2022-08-28T16:34:19.613Z,99094.41
2022-08-28T16:36:53.060Z,99086.56
2022-08-28T16:39:19.534Z,99089.31
2022-08-28T16:41:49.885Z,99096.56
2022-08-28T16:44:19.833Z,99095.84
2022-08-28T16:46:46.830Z,99096.78
2022-08-28T16:49:13.456Z,99089.84
2022-08-28T16:51:41.949Z,99100.00
2022-08-28T16:54:08.410Z,99097.66
2022-08-28T16:56:35.342Z,99090.53
2022-08-28T16:59:02.063Z,99092.28
2022-08-28T17:01:28.702Z,99092.44
2022-08-28T17:03:55.939Z,99092.78
2022-08-28T17:06:23.987Z,99096.66
2022-08-28T17:08:55.911Z,99088.41
2022-08-28T17:11:24.179Z,99092.78
2022-08-28T17:13:50.605Z,99090.09
2022-08-28T17:16:18.733Z,99088.66
2022-08-28T17:18:47.401Z,99089.88
2022-08-28T17:21:33.674Z,99091.91
2022-08-28T17:24:00.177Z,99093.69
2022-08-28T17:26:26.603Z,99087.59
2022-08-28T17:28:53.053Z,99099.19
2022-08-28T17:31:19.950Z,99094.00
2022-08-28T17:33:46.438Z,99097.84
2022-08-28T17:36:30.733Z,99094.31
2022-08-28T17:39:03.662Z,99104.25
2022-08-28T17:41:30.213Z,99105.34
2022-08-28T17:43:56.799Z,99112.56
2022-08-28T17:46:23.336Z,99104.63
2022-08-28T17:48:56.060Z,99107.41
2022-08-28T17:51:43.070Z,99110.44
2022-08-28T17:54:11.649Z,99108.09
2022-08-28T17:56:38.143Z,99118.06
2022-08-28T17:59:05.025Z,99118.13
2022-08-28T18:01:31.553Z,99119.13
2022-08-28T18:03:58.147Z,99121.19
2022-08-28T18:06:24.988Z,99123.13
2022-08-28T18:08:51.870Z,99115.50
2022-08-28T18:11:19.141Z,99121.06
2022-08-28T18:13:46.193Z,99130.88
2022-08-28T18:16:12.805Z,99122.97
2022-08-28T18:18:39.309Z,99126.75
2022-08-28T18:21:05.783Z,99131.44
2022-08-28T18:23:37.686Z,99129.91
2022-08-28T18:26:04.093Z,99133.34
2022-08-28T18:28:31.991Z,99139.53
2022-08-28T18:31:01.820Z,99138.56
2022-08-28T18:33:29.627Z,99145.72
2022-08-28T18:35:57.237Z,99147.41
2022-08-28T18:38:27.830Z,99154.53
2022-08-28T18:40:54.618Z,99160.88
2022-08-28T18:43:22.487Z,99155.69
2022-08-28T18:45:49.094Z,99160.47
2022-08-28T18:48:15.655Z,99162.59
2022-08-28T18:50:46.173Z,99164.59
2022-08-28T18:53:13.838Z,99162.03
2022-08-28T18:55:40.288Z,99180.97
2022-08-28T18:58:14.003Z,99173.88
2022-08-28T19:00:41.992Z,99179.47
2022-08-28T19:03:09.291Z,99184.09
2022-08-28T19:05:36.432Z,99183.41
2022-08-28T19:08:02.907Z,99186.00
2022-08-28T19:10:33.855Z,99192.41
2022-08-28T19:13:04.383Z,99198.84
2022-08-28T19:15:33.212Z,99191.69
2022-08-28T19:18:06.375Z,99199.53
2022-08-28T19:20:33.539Z,99203.16
2022-08-28T19:23:00.387Z,99203.09
2022-08-28T19:25:29.278Z,99199.69
2022-08-28T19:28:02.655Z,99205.09
2022-08-28T19:30:32.935Z,99209.56
2022-08-28T19:33:00.742Z,99208.94
2022-08-28T19:35:27.189Z,99214.28
2022-08-28T19:37:54.047Z,99215.44
2022-08-28T19:40:20.914Z,99208.16
2022-08-28T19:42:51.244Z,99215.25
2022-08-28T19:45:18.235Z,99218.72
2022-08-28T19:47:48.132Z,99212.72
2022-08-28T19:50:15.559Z,99217.97
2022-08-28T19:52:43.070Z,99223.50
2022-08-28T19:55:13.107Z,99230.69
2022-08-28T19:57:39.704Z,99231.75
2022-08-28T20:00:06.349Z,99234.69
2022-08-28T20:02:36.597Z,99236.34
2022-08-28T20:05:06.490Z,99239.91
2022-08-28T20:07:34.613Z,99247.88
2022-08-28T20:10:01.429Z,99245.25
2022-08-28T20:12:27.911Z,99248.06
2022-08-28T20:14:54.320Z,99247.16
2022-08-28T20:17:20.775Z,99244.47
2022-08-28T20:19:48.979Z,99252.38
2022-08-28T20:22:15.750Z,99247.88
2022-08-28T20:24:42.185Z,99248.78
2022-08-28T20:27:08.691Z,99256.72
2022-08-28T20:29:35.150Z,99263.00
2022-08-28T20:32:04.527Z,99260.44
2022-08-28T20:34:30.920Z,99269.59
2022-08-28T20:36:57.349Z,99264.25
2022-08-28T20:39:23.768Z,99268.72
2022-08-28T20:41:50.251Z,99271.53
2022-08-28T20:44:17.800Z,99276.97
2022-08-28T20:46:44.595Z,99270.97
2022-08-28T20:49:17.778Z,99279.03
2022-08-28T20:51:53.788Z,99270.25
2022-08-28T20:54:21.506Z,99272.75
2022-08-28T20:56:48.503Z,99278.22
2022-08-28T20:59:14.960Z,99276.72
2022-08-28T21:01:41.631Z,99274.84
2022-08-28T21:04:08.267Z,99276.66
2022-08-28T21:06:34.799Z,99283.91
2022-08-28T21:09:04.190Z,99280.19
2022-08-28T21:11:31.162Z,99280.16
2022-08-28T21:13:59.503Z,99284.69
2022-08-28T21:16:26.082Z,99292.84
2022-08-28T21:19:14.487Z,99284.06
2022-08-28T21:21:39.478Z,99295.63
2022-08-28T21:24:06.763Z,99293.00
2022-08-28T21:26:33.232Z,99289.63
2022-08-28T21:29:00.783Z,99294.97
2022-08-28T21:31:27.315Z,99294.31
2022-08-28T21:33:53.904Z,99290.13
2022-08-28T21:36:20.352Z,99293.66
2022-08-28T21:38:47.356Z,99290.16
2022-08-28T21:41:14.764Z,99292.03
2022-08-28T21:43:45.354Z,99286.56
2022-08-28T21:46:16.391Z,99281.19
2022-08-28T21:48:43.410Z,99288.19
2022-08-28T21:51:12.378Z,99284.72
2022-08-28T21:53:39.948Z,99295.28
2022-08-28T21:56:07.418Z,99295.22
2022-08-28T21:58:36.077Z,99295.19
2022-08-28T22:01:02.747Z,99290.75
2022-08-28T22:03:29.247Z,99291.78
2022-08-28T22:05:56.341Z,99291.00
2022-08-28T22:08:24.757Z,99289.41
2022-08-28T22:10:51.715Z,99287.72
2022-08-28T22:13:18.520Z,99290.31
2022-08-28T22:15:46.115Z,99285.97
2022-08-28T22:18:14.175Z,99285.09
2022-08-28T22:21:01.535Z,99288.66
2022-08-28T22:23:29.003Z,99295.91
2022-08-28T22:25:55.423Z,99285.22
2022-08-28T22:28:21.870Z,99285.34
2022-08-28T22:30:51.900Z,99291.31
2022-08-28T22:33:18.296Z,99294.06
2022-08-28T22:35:44.893Z,99288.72
2022-08-28T22:38:11.313Z,99294.16
2022-08-28T22:40:37.860Z,99287.88
2022-08-28T22:43:04.256Z,99289.97
2022-08-28T22:45:31.468Z,99290.25
2022-08-28T22:47:58.006Z,99289.31
2022-08-28T22:50:24.409Z,99298.09
2022-08-28T22:52:50.917Z,99299.97
2022-08-28T22:55:18.346Z,99294.59
2022-08-28T22:57:48.049Z,99296.28
2022-08-28T23:00:16.455Z,99296.09
2022-08-28T23:02:43.642Z,99299.63
2022-08-28T23:05:10.663Z,99305.88
2022-08-28T23:07:37.125Z,99302.38
2022-08-28T23:10:04.644Z,99305.16
2022-08-28T23:12:31.161Z,99309.91
2022-08-28T23:14:59.804Z,99304.69
2022-08-28T23:17:26.272Z,99301.94
2022-08-28T23:19:52.711Z,99297.44
2022-08-28T23:22:19.396Z,99308.06
2022-08-28T23:24:46.934Z,99300.94
2022-08-28T23:27:34.602Z,99308.94
2022-08-28T23:29:59.940Z,99302.78
2022-08-28T23:32:26.385Z,99292.16
2022-08-28T23:34:52.820Z,99295.69
2022-08-28T23:37:19.234Z,99302.78
2022-08-28T23:39:46.243Z,99300.94
2022-08-28T23:42:16.798Z,99289.44
2022-08-28T23:44:43.257Z,99294.84
2022-08-28T23:47:12.021Z,99291.34
2022-08-28T23:49:42.629Z,99285.94
2022-08-28T23:52:09.335Z,99287.03
2022-08-28T23:54:36.528Z,99281.78
2022-08-28T23:57:06.749Z,99275.66
2022-08-28T23:59:33.534Z,99277.31
